Time;durP1;ratioP1;P1;durP2;ratioP2;P2;SDS_P1;SDS_P2;PMS_P1;PMS_P2;Temp;Humidity;BMP_temperature;BMP_pressure;BME280_temperature;BME280_humidity;BME280_pressure;Samples;Min_cycle;Max_cycle;Signal;HPM_P1;HPM_P2
2021/06/30 00:01:11;;;;;;;3.92;2.65;;;;;;;16.32;81.64;95934.88;5012628;28;20053;-73
2021/06/30 00:03:38;;;;;;;3.40;2.60;;;;;;;16.34;82.10;95938.88;5012804;28;20050;-73
2021/06/30 00:06:04;;;;;;;5.50;2.75;;;;;;;16.36;82.28;95939.28;5012760;28;20045;-74
2021/06/30 00:08:31;;;;;;;4.72;2.20;;;;;;;16.40;81.02;95936.63;5012851;28;20046;-73
2021/06/30 00:10:58;;;;;;;5.57;2.40;;;;;;;16.39;80.60;95946.81;5013037;28;20042;-73
2021/06/30 00:13:26;;;;;;;4.35;2.60;;;;;;;16.43;80.95;95944.91;5012265;28;20492;-73
2021/06/30 00:15:53;;;;;;;7.30;2.70;;;;;;;16.46;80.51;95950.84;5012982;28;20054;-73
2021/06/30 00:18:21;;;;;;;4.32;2.50;;;;;;;16.48;80.24;95940.28;5012520;28;20050;-73
2021/06/30 00:20:48;;;;;;;4.70;2.30;;;;;;;16.47;79.47;95935.94;5012700;28;20045;-73
2021/06/30 00:23:14;;;;;;;4.90;2.50;;;;;;;16.46;80.04;95939.84;5012443;28;20057;-73
2021/06/30 00:25:41;;;;;;;3.38;2.35;;;;;;;16.48;80.70;95927.31;5012991;28;20050;-73
2021/06/30 00:28:07;;;;;;;7.40;3.03;;;;;;;16.52;81.09;95930.13;5012083;28;20050;-74
2021/06/30 00:30:35;;;;;;;3.72;2.70;;;;;;;16.52;80.40;95930.13;5012773;28;20042;-73
2021/06/30 00:33:02;;;;;;;4.53;2.75;;;;;;;16.49;79.19;95925.34;5011752;28;20042;-75
2021/06/30 00:35:28;;;;;;;3.85;2.28;;;;;;;16.41;79.27;95922.50;5012643;28;20050;-73
2021/06/30 00:37:55;;;;;;;3.90;2.78;;;;;;;16.40;79.92;95926.41;5012426;28;20053;-73
2021/06/30 00:40:22;;;;;;;5.57;2.83;;;;;;;16.42;80.69;95924.09;5011943;28;20056;-73
2021/06/30 00:42:49;;;;;;;4.45;2.63;;;;;;;16.46;81.47;95923.38;5012526;28;20050;-73
2021/06/30 00:45:18;;;;;;;7.38;2.70;;;;;;;16.49;81.71;95911.63;5011962;28;20050;-73
2021/06/30 00:47:46;;;;;;;4.50;2.80;;;;;;;16.48;82.02;95910.03;5012212;28;20050;-73
2021/06/30 00:50:15;;;;;;;6.15;3.05;;;;;;;16.49;82.54;95914.38;5011962;28;20050;-73
2021/06/30 00:52:41;;;;;;;3.65;2.85;;;;;;;16.48;82.59;95916.31;5012393;28;20050;-73
2021/06/30 00:55:09;;;;;;;3.38;2.90;;;;;;;16.47;82.69;95912.00;5011679;28;20500;-74
2021/06/30 00:57:36;;;;;;;7.38;3.15;;;;;;;16.48;82.80;95910.03;5012170;28;20520;-73
2021/06/30 01:00:04;;;;;;;4.10;3.20;;;;;;;16.51;83.03;95917.56;5011651;28;20054;-74
2021/06/30 01:02:30;;;;;;;5.78;3.38;;;;;;;16.53;83.20;95917.97;5009371;28;20046;-73
2021/06/30 01:04:58;;;;;;;7.68;3.25;;;;;;;16.55;83.27;95918.41;5012063;28;20050;-73
2021/06/30 01:07:24;;;;;;;3.45;2.83;;;;;;;16.54;82.99;95905.81;5011645;28;20049;-73
2021/06/30 01:09:51;;;;;;;5.40;3.83;;;;;;;16.56;83.15;95912.56;5011650;28;20053;-73
2021/06/30 01:12:17;;;;;;;4.50;3.03;;;;;;;16.58;83.07;95925.91;5011242;28;20054;-73
2021/06/30 01:14:44;;;;;;;5.90;2.80;;;;;;;16.60;81.58;95924.41;5011861;28;20061;-73
2021/06/30 01:17:10;;;;;;;3.95;2.50;;;;;;;16.59;81.05;95911.00;5011664;28;20046;-73
2021/06/30 01:19:38;;;;;;;10.48;2.80;;;;;;;16.55;81.41;95910.97;5011823;28;20038;-73
2021/06/30 01:22:07;;;;;;;3.35;2.65;;;;;;;16.54;81.60;95916.81;5011315;28;20068;-73
2021/06/30 01:24:36;;;;;;;5.43;2.85;;;;;;;16.50;81.83;95927.75;5011229;28;20054;-73
2021/06/30 01:27:04;;;;;;;5.10;2.80;;;;;;;16.48;82.06;95923.78;5011380;28;20042;-74
2021/06/30 01:29:31;;;;;;;4.63;2.88;;;;;;;16.50;82.16;95926.97;5011469;28;20516;-73
2021/06/30 01:31:57;;;;;;;4.20;2.88;;;;;;;16.53;82.37;95920.72;5011580;28;20049;-73
2021/06/30 01:34:24;;;;;;;4.05;2.85;;;;;;;16.55;81.66;95921.97;5011189;28;20049;-73
2021/06/30 01:36:53;;;;;;;7.63;2.63;;;;;;;16.57;81.15;95929.84;5011502;28;20062;-73
2021/06/30 01:39:21;;;;;;;3.75;2.70;;;;;;;16.56;80.26;95928.25;5011082;28;20054;-73
2021/06/30 01:41:50;;;;;;;4.47;2.40;;;;;;;16.48;79.65;95921.03;5011484;28;20046;-73
2021/06/30 01:44:17;;;;;;;4.05;2.50;;;;;;;16.42;79.38;95926.03;5011051;28;20046;-73
2021/06/30 01:46:44;;;;;;;3.55;2.55;;;;;;;16.36;79.67;95931.03;5011626;28;20073;-74
2021/06/30 01:49:11;;;;;;;4.55;3.05;;;;;;;16.33;80.27;95940.00;5010855;28;20048;-73
2021/06/30 01:51:38;;;;;;;5.28;2.60;;;;;;;16.32;80.46;95946.66;5011555;28;20042;-73
2021/06/30 01:54:09;;;;;;;4.15;2.42;;;;;;;16.30;79.98;95938.00;5010961;28;20041;-73
2021/06/30 01:56:35;;;;;;;3.83;2.60;;;;;;;16.25;80.13;95937.50;5011299;28;20038;-73
2021/06/30 01:59:06;;;;;;;3.55;2.50;;;;;;;16.27;80.38;95938.72;5010757;28;20054;-75
2021/06/30 02:01:33;;;;;;;5.13;3.20;;;;;;;16.25;79.78;95954.00;5011429;28;20050;-73
2021/06/30 02:04:01;;;;;;;5.03;2.67;;;;;;;16.22;79.81;95952.75;5011240;28;20619;-73
2021/06/30 02:06:29;;;;;;;8.65;2.80;;;;;;;16.19;80.66;95950.75;5010980;28;20042;-73
2021/06/30 02:08:57;;;;;;;3.88;2.50;;;;;;;16.23;80.79;95959.03;5011133;28;20042;-73
2021/06/30 02:11:25;;;;;;;6.53;3.03;;;;;;;16.17;80.02;95962.09;5010887;28;20128;-73
2021/06/30 02:13:52;;;;;;;4.93;2.80;;;;;;;16.11;80.13;95965.50;5011204;28;20053;-73
2021/06/30 02:16:20;;;;;;;4.28;2.63;;;;;;;16.07;80.86;95964.63;5010841;28;20046;-73
2021/06/30 02:18:48;;;;;;;4.60;2.92;;;;;;;16.04;80.84;95965.38;5011273;28;20054;-73
2021/06/30 02:21:15;;;;;;;3.53;2.92;;;;;;;16.06;81.10;95965.78;5010492;28;20056;-73
2021/06/30 02:23:42;;;;;;;4.18;3.08;;;;;;;16.07;81.89;95968.16;5011075;28;20053;-74
2021/06/30 02:26:08;;;;;;;6.55;2.83;;;;;;;16.08;81.74;95974.47;5010513;28;20054;-73
2021/06/30 02:28:35;;;;;;;6.18;3.35;;;;;;;16.06;81.60;95965.78;5011179;28;20042;-74
2021/06/30 02:31:02;;;;;;;5.38;3.30;;;;;;;16.05;81.74;95958.72;5010146;28;20057;-74
2021/06/30 02:33:30;;;;;;;4.95;3.30;;;;;;;16.06;82.15;95976.78;5010916;28;20042;-73
2021/06/30 02:35:56;;;;;;;6.22;3.00;;;;;;;16.03;81.61;95983.00;5010851;28;20061;-73
2021/06/30 02:38:23;;;;;;;4.60;3.28;;;;;;;16.04;81.96;95995.59;5013616;28;20046;-74
2021/06/30 02:40:50;;;;;;;5.05;3.08;;;;;;;16.00;81.68;95995.50;5014642;28;20052;-73
2021/06/30 02:43:17;;;;;;;7.68;3.42;;;;;;;15.94;82.14;95996.16;5014341;28;20108;-73
2021/06/30 02:45:43;;;;;;;6.70;3.08;;;;;;;15.88;82.08;95995.66;5014579;28;20456;-73
2021/06/30 02:48:10;;;;;;;9.02;3.90;;;;;;;15.83;82.58;95991.25;5014196;28;20056;-74
2021/06/30 02:50:37;;;;;;;11.73;3.70;;;;;;;15.74;83.05;95993.38;5014407;28;20050;-73
2021/06/30 02:53:04;;;;;;;3.90;3.17;;;;;;;15.66;83.76;95997.16;5013878;28;20501;-74
2021/06/30 02:55:30;;;;;;;4.20;3.05;;;;;;;15.69;84.07;96001.91;5014205;28;20513;-73
2021/06/30 02:57:57;;;;;;;5.97;3.50;;;;;;;15.70;84.20;96006.25;5014330;28;20049;-74
2021/06/30 03:00:25;;;;;;;6.22;3.80;;;;;;;15.70;84.74;96021.91;5013821;28;20045;-73
2021/06/30 03:02:52;;;;;;;5.43;3.30;;;;;;;15.63;84.89;96009.63;5014079;28;20498;-74
2021/06/30 03:05:20;;;;;;;4.65;3.15;;;;;;;15.60;84.76;96017.75;5013742;28;20049;-74
2021/06/30 03:07:50;;;;;;;3.97;3.05;;;;;;;15.52;84.63;96024.25;5013628;28;20061;-73
2021/06/30 03:10:18;;;;;;;6.85;3.65;;;;;;;15.47;85.07;96028.06;5013334;28;20053;-74
2021/06/30 03:12:45;;;;;;;4.30;3.10;;;;;;;15.44;85.10;96027.97;5014364;28;20053;-73
2021/06/30 03:15:13;;;;;;;5.57;3.10;;;;;;;15.37;85.19;96034.88;5013558;28;20066;-74
2021/06/30 03:17:40;;;;;;;6.20;3.20;;;;;;;15.34;85.27;96035.59;5014031;28;20063;-74
2021/06/30 03:20:09;;;;;;;3.90;2.65;;;;;;;15.34;85.38;96038.34;5013654;28;20042;-73
2021/06/30 03:22:36;;;;;;;3.90;2.75;;;;;;;15.30;85.17;96029.25;5014082;28;20049;-73
2021/06/30 03:25:06;;;;;;;5.45;2.70;;;;;;;15.30;84.91;96037.47;5013424;28;20049;-74
2021/06/30 03:27:32;;;;;;;3.97;2.30;;;;;;;15.32;85.02;96035.16;5014027;28;20049;-73
2021/06/30 03:29:58;;;;;;;3.30;2.30;;;;;;;15.26;84.00;96047.56;5013507;28;20050;-73
2021/06/30 03:32:25;;;;;;;3.65;2.38;;;;;;;15.22;84.42;96043.94;5013239;28;20054;-73
2021/06/30 03:34:52;;;;;;;5.50;2.13;;;;;;;15.22;84.61;96049.41;5013670;28;20501;-73
2021/06/30 03:37:19;;;;;;;5.47;1.90;;;;;;;15.12;83.81;96049.94;5012989;28;20058;-74
2021/06/30 03:39:45;;;;;;;3.67;1.88;;;;;;;15.10;84.54;96046.78;5013677;28;20072;-73
2021/06/30 03:42:13;;;;;;;5.97;2.13;;;;;;;15.03;83.91;96063.03;5013214;28;20422;-73
2021/06/30 03:44:39;;;;;;;2.88;1.35;;;;;;;15.00;83.89;96053.59;5013496;28;20054;-74
2021/06/30 03:47:06;;;;;;;3.88;1.70;;;;;;;14.97;83.66;96058.97;5012917;28;20053;-73
2021/06/30 03:49:32;;;;;;;2.97;1.40;;;;;;;14.88;83.19;96057.22;5013106;28;20045;-73
2021/06/30 03:51:59;;;;;;;2.40;1.40;;;;;;;14.84;83.82;96055.53;5013447;28;20049;-73
2021/06/30 03:54:27;;;;;;;1.60;1.00;;;;;;;14.81;84.11;96053.47;5012800;28;20034;-73
2021/06/30 03:56:54;;;;;;;2.80;1.42;;;;;;;14.80;83.67;96054.63;5013231;28;20057;-73
2021/06/30 03:59:22;;;;;;;3.95;1.55;;;;;;;14.72;82.74;96050.94;5012666;28;20050;-73
2021/06/30 04:01:50;;;;;;;1.38;0.75;;;;;;;14.64;83.05;96062.84;5013064;28;20050;-73
2021/06/30 04:04:17;;;;;;;1.42;0.80;;;;;;;14.61;83.12;96058.03;5012853;28;20074;-74
2021/06/30 04:06:44;;;;;;;1.77;1.00;;;;;;;14.56;82.47;96064.59;5013096;28;20056;-73
2021/06/30 04:09:11;;;;;;;1.67;0.93;;;;;;;14.56;83.05;96055.56;5012596;28;20053;-73
2021/06/30 04:11:37;;;;;;;3.97;0.90;;;;;;;14.52;83.80;96066.44;5013026;28;20149;-73
2021/06/30 04:14:04;;;;;;;1.42;1.00;;;;;;;14.52;83.66;96063.69;5012435;28;20045;-73
2021/06/30 04:16:32;;;;;;;3.28;1.08;;;;;;;14.49;83.43;96071.81;5012924;28;20521;-73
2021/06/30 04:18:58;;;;;;;3.05;1.13;;;;;;;14.48;83.01;96059.28;5012893;28;20049;-74
2021/06/30 04:21:25;;;;;;;1.52;1.05;;;;;;;14.44;83.52;96069.28;5012493;28;20042;-73
2021/06/30 04:23:53;;;;;;;2.55;0.90;;;;;;;14.42;83.45;96063.38;5012687;28;20050;-74
2021/06/30 04:26:20;;;;;;;3.20;1.08;;;;;;;14.43;83.94;96056.75;5012389;28;20476;-73
2021/06/30 04:28:46;;;;;;;1.27;0.88;;;;;;;14.42;84.15;96066.91;5012725;28;20053;-74
2021/06/30 04:31:13;;;;;;;3.72;1.08;;;;;;;14.36;83.78;96062.84;5012032;28;20058;-74
2021/06/30 04:33:41;;;;;;;1.38;0.70;;;;;;;14.30;83.43;96059.56;5011679;28;20050;-73
2021/06/30 04:36:08;;;;;;;1.27;0.85;;;;;;;14.31;83.76;96055.66;5012098;28;20045;-74
2021/06/30 04:38:35;;;;;;;2.35;1.00;;;;;;;14.31;83.42;96055.66;5012503;28;20045;-73
2021/06/30 04:41:01;;;;;;;1.30;0.90;;;;;;;14.34;83.54;96054.16;5012454;28;20053;-74
2021/06/30 04:43:28;;;;;;;1.35;0.90;;;;;;;14.33;83.21;96053.38;5012209;28;20068;-74
2021/06/30 04:45:55;;;;;;;1.05;0.90;;;;;;;14.36;83.86;96046.41;5012314;28;20515;-74
2021/06/30 04:48:21;;;;;;;4.53;1.00;;;;;;;14.39;82.99;96047.63;5011891;28;20074;-74
2021/06/30 04:50:49;;;;;;;1.42;0.95;;;;;;;14.35;82.85;96044.78;5012005;28;20501;-73
2021/06/30 04:53:16;;;;;;;2.20;1.25;;;;;;;14.30;82.57;96051.34;5010283;28;20057;-73
2021/06/30 04:55:43;;;;;;;1.90;1.20;;;;;;;14.22;81.84;96035.84;5009319;28;20058;-74
2021/06/30 04:58:09;;;;;;;1.45;0.93;;;;;;;14.22;82.43;96032.31;5010892;28;20050;-73
2021/06/30 05:00:36;;;;;;;1.20;0.77;;;;;;;14.24;82.78;96032.75;5011234;28;20053;-73
2021/06/30 05:03:03;;;;;;;1.35;0.80;;;;;;;14.26;82.33;96035.94;5011677;28;20049;-74
2021/06/30 05:05:29;;;;;;;1.58;0.77;;;;;;;14.27;81.87;96041.06;5011762;28;20050;-73
2021/06/30 05:07:57;;;;;;;1.60;0.82;;;;;;;14.26;81.39;96034.00;5011916;28;20042;-79
2021/06/30 05:10:25;;;;;;;1.13;0.68;;;;;;;14.28;81.95;96028.97;5011350;28;20050;-78
2021/06/30 05:12:51;;;;;;;1.90;0.80;;;;;;;14.33;81.66;96030.66;5011670;28;20496;-77
2021/06/30 05:15:18;;;;;;;2.88;0.90;;;;;;;14.29;81.64;96036.03;5011171;28;20069;-77
2021/06/30 05:17:44;;;;;;;0.90;0.70;;;;;;;14.30;81.60;96043.13;5011584;28;20050;-78
2021/06/30 05:20:12;;;;;;;2.35;1.15;;;;;;;14.27;80.53;96048.50;5011380;28;20046;-77
2021/06/30 05:22:39;;;;;;;1.85;0.65;;;;;;;14.24;81.29;96049.97;5011526;28;20057;-77
2021/06/30 05:25:08;;;;;;;1.15;0.60;;;;;;;14.21;81.44;96055.38;5010906;28;20408;-78
2021/06/30 05:27:34;;;;;;;1.55;0.82;;;;;;;14.17;81.71;96068.94;5010895;28;20042;-77
2021/06/30 05:30:01;;;;;;;2.78;0.70;;;;;;;14.11;81.37;96056.66;5010843;28;20042;-77
2021/06/30 05:32:27;;;;;;;0.98;0.70;;;;;;;14.14;82.39;96055.94;5011357;28;20045;-79
2021/06/30 05:34:53;;;;;;;2.55;0.75;;;;;;;14.09;80.91;96043.31;5011561;28;20045;-78
2021/06/30 05:37:20;;;;;;;1.00;0.80;;;;;;;14.11;81.92;96051.19;5010842;28;20054;-78
2021/06/30 05:39:46;;;;;;;1.42;0.60;;;;;;;14.18;81.50;96051.38;5011482;28;20045;-78
2021/06/30 05:42:14;;;;;;;1.20;0.63;;;;;;;14.24;81.55;96060.94;5010725;28;20076;-78
2021/06/30 05:44:41;;;;;;;1.13;0.52;;;;;;;14.32;81.27;96057.25;5011508;28;20050;-78
2021/06/30 05:47:07;;;;;;;1.80;0.80;;;;;;;14.41;80.87;96059.03;5010831;28;20054;-78
2021/06/30 05:49:34;;;;;;;1.60;0.52;;;;;;;14.44;79.29;96055.59;5009982;28;20512;-78
2021/06/30 05:52:00;;;;;;;2.05;0.60;;;;;;;14.41;78.98;96054.38;5011364;28;20050;-77
2021/06/30 05:54:27;;;;;;;3.05;0.60;;;;;;;14.39;79.19;96055.84;5010505;28;20049;-78
2021/06/30 05:56:53;;;;;;;2.85;0.73;;;;;;;14.39;78.95;96056.66;5011226;28;20042;-78
2021/06/30 05:59:21;;;;;;;0.68;0.45;;;;;;;14.40;78.91;96051.97;5010388;28;20057;-78
2021/06/30 06:01:47;;;;;;;3.50;0.65;;;;;;;14.43;79.24;96057.53;5011301;28;20049;-78
2021/06/30 06:04:14;;;;;;;1.48;0.60;;;;;;;14.48;79.56;96064.75;5010621;28;20046;-77
2021/06/30 06:06:40;;;;;;;2.25;0.45;;;;;;;14.46;78.10;96056.84;5011326;28;20061;-77
2021/06/30 06:09:07;;;;;;;0.70;0.50;;;;;;;14.40;78.46;96065.66;5010392;28;20050;-77
2021/06/30 06:11:33;;;;;;;2.05;0.40;;;;;;;14.39;78.70;96059.38;5013220;28;20049;-77
2021/06/30 06:14:00;;;;;;;0.90;0.50;;;;;;;14.40;78.49;96068.41;5014679;28;20421;-77
2021/06/30 06:16:27;;;;;;;2.88;0.60;;;;;;;14.45;79.57;96062.66;5014757;28;20048;-77
2021/06/30 06:18:54;;;;;;;1.40;0.73;;;;;;;14.47;78.76;96060.38;5014652;28;20050;-78
2021/06/30 06:21:20;;;;;;;0.90;0.70;;;;;;;14.58;79.27;96069.72;5014400;28;20056;-77
2021/06/30 06:23:47;;;;;;;0.47;0.43;;;;;;;14.62;78.43;96065.13;5014257;28;20049;-78
2021/06/30 06:26:14;;;;;;;0.60;0.40;;;;;;;14.68;78.03;96069.22;5014623;28;20054;-78
2021/06/30 06:28:41;;;;;;;1.67;0.75;;;;;;;14.72;77.51;96070.09;5014469;28;20046;-77
2021/06/30 06:31:12;;;;;;;1.10;0.60;;;;;;;14.81;77.46;96061.69;5014317;28;20054;-76
2021/06/30 06:33:40;;;;;;;0.85;0.52;;;;;;;14.82;77.62;96055.84;5013385;28;20061;-77
2021/06/30 06:36:08;;;;;;;3.40;0.68;;;;;;;14.90;77.91;96053.31;5014360;28;20053;-77
2021/06/30 06:38:37;;;;;;;0.55;0.50;;;;;;;14.99;77.70;96060.22;5014377;28;20041;-77
2021/06/30 06:41:03;;;;;;;3.95;0.65;;;;;;;15.07;78.08;96063.94;5013879;28;20053;-77
2021/06/30 06:43:30;;;;;;;0.40;0.35;;;;;;;15.14;77.10;96064.13;5014402;28;20042;-78
2021/06/30 06:45:56;;;;;;;3.58;0.90;;;;;;;15.17;76.63;96068.88;5014367;28;20056;-77
2021/06/30 06:48:23;;;;;;;0.98;0.40;;;;;;;15.22;76.15;96065.88;5013917;28;20041;-77
2021/06/30 06:50:50;;;;;;;2.58;0.60;;;;;;;15.25;74.60;96064.38;5014184;28;20046;-77
2021/06/30 06:53:17;;;;;;;1.25;0.45;;;;;;;15.21;74.63;96072.50;5013853;28;20450;-78
2021/06/30 06:55:43;;;;;;;2.15;0.52;;;;;;;15.28;76.54;96069.13;5014288;28;20076;-77
2021/06/30 06:58:10;;;;;;;0.47;0.38;;;;;;;15.32;74.22;96068.09;5013647;28;20141;-77
2021/06/30 07:00:36;;;;;;;0.90;0.60;;;;;;;15.32;74.33;96068.09;5013855;28;20489;-77
2021/06/30 07:03:03;;;;;;;1.67;0.35;;;;;;;15.32;74.33;96070.81;5013575;28;20045;-77
2021/06/30 07:05:29;;;;;;;0.95;0.50;;;;;;;15.37;76.12;96073.28;5013940;28;20050;-77
2021/06/30 07:07:57;;;;;;;1.10;0.55;;;;;;;15.51;74.65;96066.56;5013957;28;20042;-76
2021/06/30 07:10:23;;;;;;;2.67;0.60;;;;;;;15.58;73.40;96072.22;5013685;28;20053;-80
2021/06/30 07:12:50;;;;;;;1.40;0.60;;;;;;;15.65;73.94;96061.41;5014360;28;20493;-75
2021/06/30 07:15:16;;;;;;;0.88;0.40;;;;;;;15.81;75.89;96062.16;5013642;28;20500;-76
2021/06/30 07:17:43;;;;;;;0.93;0.50;;;;;;;15.89;73.92;96061.19;5014500;28;20049;-73
2021/06/30 07:20:10;;;;;;;1.45;0.50;;;;;;;15.88;72.83;96056.06;5013393;28;20054;-72
2021/06/30 07:22:36;;;;;;;0.98;0.52;;;;;;;15.92;71.91;96059.66;5013323;28;20058;-76
2021/06/30 07:25:05;;;;;;;1.17;0.90;;;;;;;15.84;68.57;96053.22;5012182;28;20058;-75
2021/06/30 07:27:32;;;;;;;0.75;0.47;;;;;;;15.87;69.34;96065.47;5013526;28;20069;-74
2021/06/30 07:29:58;;;;;;;1.92;0.40;;;;;;;15.81;70.02;96067.66;5013273;28;20057;-73
2021/06/30 07:32:25;;;;;;;1.20;0.60;;;;;;;15.81;70.44;96064.91;5013021;28;20046;-74
2021/06/30 07:34:51;;;;;;;1.50;0.45;;;;;;;15.84;70.22;96064.22;5013230;28;20513;-73
2021/06/30 07:37:18;;;;;;;0.88;0.40;;;;;;;15.90;71.21;96059.22;5012967;28;20046;-74
2021/06/30 07:39:44;;;;;;;0.85;0.40;;;;;;;15.96;73.13;96065.22;5013248;28;20046;-73
2021/06/30 07:42:12;;;;;;;1.98;0.45;;;;;;;16.00;71.74;96075.13;5012899;28;20054;-73
2021/06/30 07:44:39;;;;;;;0.35;0.30;;;;;;;16.09;71.37;96070.25;5013122;28;20064;-73
2021/06/30 07:47:06;;;;;;;0.90;0.50;;;;;;;16.15;71.91;96073.50;5012873;28;20046;-75
2021/06/30 07:49:33;;;;;;;6.57;0.82;;;;;;;16.21;70.12;96071.25;5013069;28;20544;-73
2021/06/30 07:51:59;;;;;;;1.85;0.43;;;;;;;16.29;70.63;96067.50;5013150;28;20042;-73
2021/06/30 07:54:26;;;;;;;0.95;0.35;;;;;;;16.42;72.11;96061.47;5012382;28;20058;-74
2021/06/30 07:56:52;;;;;;;0.50;0.32;;;;;;;16.48;70.24;96053.75;5013211;28;20046;-73
2021/06/30 07:59:20;;;;;;;0.63;0.30;;;;;;;16.63;72.18;96055.59;5012314;28;20046;-75
2021/06/30 08:01:46;;;;;;;1.25;0.40;;;;;;;16.78;67.72;96051.19;5012936;28;20050;-74
2021/06/30 08:04:13;;;;;;;3.83;0.60;;;;;;;16.86;70.79;96055.69;5012318;28;20049;-73
2021/06/30 08:06:39;;;;;;;1.02;0.40;;;;;;;16.92;66.35;96054.22;5012951;28;20052;-74
2021/06/30 08:09:06;;;;;;;0.47;0.40;;;;;;;16.97;67.25;96057.81;5012290;28;20053;-74
2021/06/30 08:11:33;;;;;;;2.28;0.60;;;;;;;17.00;68.31;96051.56;5012630;28;20056;-75
2021/06/30 08:14:00;;;;;;;1.25;0.45;;;;;;;17.14;67.35;96057.31;5012431;28;20046;-77
2021/06/30 08:16:28;;;;;;;1.25;0.40;;;;;;;17.15;65.01;96050.66;5012432;28;20050;-73
2021/06/30 08:18:54;;;;;;;1.17;0.50;;;;;;;17.30;68.02;96049.72;5012601;28;20050;-73
2021/06/30 08:21:23;;;;;;;0.88;0.30;;;;;;;17.99;62.16;96042.09;5012266;28;20053;-74
2021/06/30 08:23:50;;;;;;;0.60;0.60;;;;;;;19.15;64.06;96037.50;5012126;28;20052;-73
2021/06/30 08:26:16;;;;;;;0.98;0.40;;;;;;;20.37;59.74;96047.38;5012053;28;20054;-74
2021/06/30 08:28:44;;;;;;;1.08;0.40;;;;;;;21.25;50.06;96042.50;5012230;28;20042;-73
2021/06/30 08:31:10;;;;;;;1.15;0.50;;;;;;;21.62;53.39;96047.66;5011989;28;20057;-73
2021/06/30 08:33:38;;;;;;;0.95;0.50;;;;;;;21.78;47.48;96050.78;5012055;28;20433;-74
2021/06/30 08:36:05;;;;;;;1.25;0.35;;;;;;;22.16;48.79;96047.56;5012031;28;20054;-74
2021/06/30 08:38:32;;;;;;;0.80;0.50;;;;;;;22.19;51.59;96057.88;5011943;28;20042;-74
2021/06/30 08:40:59;;;;;;;0.70;0.30;;;;;;;22.25;47.20;96056.28;5012318;28;20042;-73
2021/06/30 08:43:26;;;;;;;0.60;0.30;;;;;;;22.47;46.84;96055.00;5011567;28;20049;-73
2021/06/30 08:45:53;;;;;;;0.30;0.20;;;;;;;22.18;46.23;96061.81;5012055;28;20053;-73
2021/06/30 08:48:21;;;;;;;1.10;0.40;;;;;;;22.29;45.04;96041.19;5011722;28;20524;-75
2021/06/30 08:50:49;;;;;;;1.40;0.30;;;;;;;22.43;50.98;96051.44;5012192;28;20125;-74
2021/06/30 08:53:16;;;;;;;0.35;0.20;;;;;;;22.64;45.11;96051.34;5011542;28;20054;-74
2021/06/30 08:55:44;;;;;;;1.17;0.80;;;;;;;21.76;48.00;96052.38;5011733;28;20050;-74
2021/06/30 08:58:12;;;;;;;0.32;0.22;;;;;;;21.22;49.97;96054.34;5011517;28;20072;-75
2021/06/30 09:00:38;;;;;;;0.30;0.30;;;;;;;20.94;49.99;96058.66;4992243;28;20418;-76
2021/06/30 09:03:08;;;;;;;2.60;0.40;;;;;;;21.18;52.19;96050.78;5006792;28;20049;-75
2021/06/30 09:08:19;;;;;;;;;;;;;;;20.18;48.73;96056.00;5004482;28;20056;-74
2021/06/30 09:10:46;;;;;;;0.45;0.40;;;;;;;19.60;53.89;96059.59;5011787;28;19929;-74
2021/06/30 09:13:20;;;;;;;0.50;0.32;;;;;;;19.30;56.33;96064.03;5011440;28;20041;-74
2021/06/30 09:15:57;;;;;;;0.15;0.15;;;;;;;19.13;55.24;96063.91;5011418;28;20049;-74
2021/06/30 09:18:26;;;;;;;0.30;0.30;;;;;;;18.92;56.72;96059.75;5011339;28;20045;-74
2021/06/30 09:21:16;;;;;;;1.40;0.80;;;;;;;18.80;55.22;96059.25;5011275;28;20080;-74
2021/06/30 09:23:57;;;;;;;0.90;0.60;;;;;;;18.78;55.10;96067.88;5011413;28;20076;-74
2021/06/30 09:26:24;;;;;;;0.20;0.20;;;;;;;18.82;57.57;96068.72;5010772;28;20402;-74
2021/06/30 09:28:51;;;;;;;0.43;0.40;;;;;;;19.13;59.29;96069.41;5011706;28;20052;-74
2021/06/30 09:31:17;;;;;;;0.43;0.43;;;;;;;19.58;63.31;96072.97;5010955;28;20065;-76
2021/06/30 09:33:49;;;;;;;0.73;0.43;;;;;;;19.68;55.34;96078.59;5011283;28;20073;-77
2021/06/30 09:36:15;;;;;;;0.65;0.40;;;;;;;19.78;54.87;96082.59;5010739;28;20390;-77
2021/06/30 09:38:44;;;;;;;0.28;0.28;;;;;;;20.04;58.33;96093.41;5011274;28;20128;-76
2021/06/30 09:41:19;;;;;;;1.45;0.40;;;;;;;20.37;57.00;96094.41;5010632;28;20133;-76
2021/06/30 09:43:46;;;;;;;0.50;0.50;;;;;;;20.49;50.14;96082.22;5011066;28;20065;-75
2021/06/30 09:46:23;;;;;;;2.38;0.50;;;;;;;20.32;52.75;96089.25;5010255;28;20077;-76
2021/06/30 09:48:55;;;;;;;0.30;0.20;;;;;;;20.04;54.01;96090.66;5010989;28;20561;-77
2021/06/30 09:51:22;;;;;;;0.37;0.30;;;;;;;19.77;52.14;96094.81;5010689;28;20107;-76
2021/06/30 09:53:49;;;;;;;2.58;0.50;;;;;;;19.30;53.52;96090.88;5010489;28;20281;-77
2021/06/30 09:56:33;;;;;;;1.05;0.50;;;;;;;18.90;55.20;96089.72;5010799;28;20381;-76
2021/06/30 09:59:18;;;;;;;0.30;0.30;;;;;;;18.73;58.85;96087.53;5010919;28;20101;-77
2021/06/30 10:01:51;;;;;;;1.05;0.60;;;;;;;18.62;56.93;96072.81;5009684;28;20045;-77
2021/06/30 10:04:22;;;;;;;;;;;;;;;18.47;55.01;96080.91;5010788;28;20124;-77
2021/06/30 10:06:49;;;;;;;2.33;0.50;;;;;;;18.36;55.42;96088.25;5011129;28;20450;-77
2021/06/30 10:09:16;;;;;;;0.50;0.50;;;;;;;18.39;56.43;96081.22;5010202;28;20130;-77
2021/06/30 10:11:44;;;;;;;1.23;0.50;;;;;;;18.54;56.84;96076.66;5011004;28;20100;-78
2021/06/30 10:14:11;;;;;;;1.10;0.65;;;;;;;18.68;57.29;96076.84;5010265;28;20046;-79
2021/06/30 10:16:38;;;;;;;0.47;0.43;;;;;;;18.96;59.21;96073.59;5011130;28;20045;-79
2021/06/30 10:19:04;;;;;;;0.38;0.38;;;;;;;19.24;59.19;96065.56;5010645;28;20042;-79
2021/06/30 10:21:31;;;;;;;1.90;0.40;;;;;;;19.40;53.02;96068.06;5011129;28;20038;-78
2021/06/30 10:24:00;;;;;;;1.25;0.50;;;;;;;19.32;57.45;96066.44;5010591;28;20050;-78
2021/06/30 10:26:26;;;;;;;1.02;0.40;;;;;;;19.33;52.66;96062.50;5010692;28;20050;-79
2021/06/30 10:28:57;;;;;;;0.60;0.43;;;;;;;19.27;53.82;96064.03;5010630;28;20053;-76
2021/06/30 10:31:24;;;;;;;0.57;0.52;;;;;;;19.15;55.28;96067.84;5010349;28;20053;-78
2021/06/30 10:33:58;;;;;;;1.20;0.60;;;;;;;19.24;56.44;96062.03;4991004;28;20061;-78
2021/06/30 10:36:57;;;;;;;0.68;0.50;;;;;;;19.19;56.04;96052.13;4990828;28;20125;-78
2021/06/30 10:39:43;;;;;;;0.35;0.35;;;;;;;19.46;55.06;96066.53;4990665;28;20053;-77
2021/06/30 10:42:23;;;;;;;0.90;0.60;;;;;;;19.61;53.44;96061.16;4990909;28;20057;-79
2021/06/30 10:44:53;;;;;;;2.90;0.60;;;;;;;19.67;53.22;96062.38;4990978;28;20129;-75
2021/06/30 10:47:39;;;;;;;0.65;0.43;;;;;;;19.64;53.48;96065.94;4990871;28;20117;-76
2021/06/30 10:50:28;;;;;;;1.58;0.38;;;;;;;19.47;55.05;96059.88;4990716;28;20046;-78
2021/06/30 10:52:56;;;;;;;0.85;0.43;;;;;;;19.34;53.63;96064.09;4985217;28;20051;-78
2021/06/30 10:55:51;;;;;;;1.00;0.50;;;;;;;19.43;56.52;96061.00;4990280;28;20043;-78
2021/06/30 10:58:19;;;;;;;0.90;0.60;;;;;;;19.47;55.85;96054.34;4992640;28;20490;-79
2021/06/30 11:00:49;;;;;;;2.15;0.70;;;;;;;19.46;52.93;96061.03;5013957;28;20574;-79
2021/06/30 11:03:27;;;;;;;1.15;0.60;;;;;;;19.48;52.72;96058.69;5013666;28;20066;-80
2021/06/30 11:05:55;;;;;;;1.10;0.65;;;;;;;19.47;55.00;96046.06;5013818;28;20077;-79
2021/06/30 11:08:39;;;;;;;1.00;0.50;;;;;;;19.40;52.65;96040.47;5013733;28;20493;-80
2021/06/30 11:11:05;;;;;;;;;;;;;;;19.26;51.95;96035.63;5013760;28;20107;-77
2021/06/30 11:13:58;;;;;;;3.65;0.70;;;;;;;19.14;57.13;96043.41;5013855;28;19928;-79
2021/06/30 11:16:57;;;;;;;1.77;0.43;;;;;;;19.11;55.53;96033.16;5013381;28;20061;-80
2021/06/30 11:19:45;;;;;;;4.50;0.50;;;;;;;19.12;56.96;96048.53;5013451;28;20050;-80
2021/06/30 11:22:29;;;;;;;0.77;0.50;;;;;;;19.09;52.38;96061.09;5013436;28;20056;-77
2021/06/30 11:24:58;;;;;;;2.33;0.70;;;;;;;19.00;53.35;96061.44;5013137;28;20540;-79
2021/06/30 11:27:48;;;;;;;0.80;0.50;;;;;;;18.87;53.42;96060.09;5013707;28;20052;-80
2021/06/30 11:30:34;;;;;;;2.95;0.50;;;;;;;18.79;53.40;96050.16;5010534;28;20049;-80
2021/06/30 11:33:02;;;;;;;0.40;0.30;;;;;;;18.72;53.85;96064.69;5013408;28;20056;-78
2021/06/30 11:35:32;;;;;;;1.42;0.30;;;;;;;18.72;55.00;96063.88;5012890;28;20046;-79
2021/06/30 11:38:12;;;;;;;2.05;0.40;;;;;;;18.55;55.49;96050.66;5013182;28;20057;-77
2021/06/30 11:40:43;;;;;;;0.98;0.47;;;;;;;18.41;54.88;96062.31;5013110;28;20049;-78
2021/06/30 11:43:12;;;;;;;0.88;0.57;;;;;;;18.30;54.92;96044.84;5012853;28;20391;-76